createdAt,value
2022-10-09T00:03:07.309Z,100.00
2022-10-09T00:08:08.752Z,100.00
2022-10-09T00:13:10.961Z,100.00
2022-10-09T00:18:15.518Z,99.83
2022-10-09T00:23:18.332Z,100.00
2022-10-09T00:28:21.184Z,100.00
2022-10-09T00:33:23.015Z,100.00
2022-10-09T00:38:24.531Z,100.00
2022-10-09T00:43:42.385Z,100.00
2022-10-09T00:48:44.203Z,100.00
2022-10-09T00:53:45.648Z,100.00
2022-10-09T00:58:51.700Z,100.00
2022-10-09T01:03:53.248Z,100.00
2022-10-09T01:09:05.073Z,100.00
2022-10-09T01:14:19.486Z,100.00
2022-10-09T01:19:45.823Z,100.00
2022-10-09T01:25:14.462Z,100.00
2022-10-09T01:30:16.031Z,100.00
2022-10-09T01:35:18.094Z,100.00
2022-10-09T01:40:21.439Z,100.00
2022-10-09T01:45:23.011Z,100.00
2022-10-09T01:50:32.796Z,100.00
2022-10-09T01:55:47.111Z,100.00
2022-10-09T02:00:59.497Z,100.00
2022-10-09T02:06:03.786Z,100.00
2022-10-09T02:11:06.417Z,100.00
2022-10-09T02:16:28.327Z,100.00
2022-10-09T02:21:40.159Z,100.00
2022-10-09T02:26:42.591Z,100.00
2022-10-09T02:31:44.760Z,100.00
2022-10-09T02:36:47.013Z,100.00
2022-10-09T02:41:48.447Z,100.00
2022-10-09T02:46:50.066Z,100.00
2022-10-09T02:51:51.585Z,100.00
2022-10-09T02:56:52.993Z,100.00
2022-10-09T03:01:54.522Z,100.00
2022-10-09T03:06:56.012Z,100.00
2022-10-09T03:11:57.564Z,100.00
2022-10-09T03:16:59.198Z,100.00
2022-10-09T03:22:00.598Z,100.00
2022-10-09T03:27:02.109Z,100.00
2022-10-09T03:32:03.788Z,100.00
2022-10-09T03:37:05.255Z,100.00
2022-10-09T03:42:06.777Z,100.00
2022-10-09T03:47:08.365Z,100.00
2022-10-09T03:52:09.852Z,100.00
2022-10-09T03:57:11.287Z,100.00
2022-10-09T04:02:12.736Z,100.00
2022-10-09T04:07:14.265Z,100.00
2022-10-09T04:12:15.821Z,100.00
2022-10-09T04:17:17.331Z,100.00
2022-10-09T04:22:18.984Z,100.00
2022-10-09T04:27:20.445Z,100.00
2022-10-09T04:32:21.964Z,100.00
2022-10-09T04:37:23.456Z,100.00
2022-10-09T04:42:24.917Z,100.00
2022-10-09T04:47:26.394Z,100.00
2022-10-09T04:52:27.864Z,100.00
2022-10-09T04:57:29.761Z,100.00
2022-10-09T05:02:31.377Z,100.00
2022-10-09T05:07:32.962Z,100.00
2022-10-09T05:12:34.436Z,100.00
2022-10-09T05:17:35.986Z,100.00
2022-10-09T05:22:37.511Z,100.00
2022-10-09T05:27:39.569Z,100.00
2022-10-09T05:32:41.011Z,100.00
2022-10-09T05:37:44.808Z,100.00
2022-10-09T05:42:49.671Z,100.00
2022-10-09T05:47:51.525Z,100.00
2022-10-09T05:52:52.982Z,100.00
2022-10-09T05:57:54.524Z,100.00
2022-10-09T06:02:56.047Z,100.00
2022-10-09T06:07:57.623Z,100.00
2022-10-09T06:12:59.074Z,100.00
2022-10-09T06:18:00.505Z,100.00
2022-10-09T06:23:01.948Z,93.22
2022-10-09T06:28:03.434Z,86.47
2022-10-09T06:33:04.895Z,82.10
2022-10-09T06:38:06.553Z,77.29
2022-10-09T06:43:08.228Z,71.83
2022-10-09T06:48:09.689Z,67.68
2022-10-09T06:53:11.138Z,62.95
2022-10-09T06:58:12.578Z,59.92
2022-10-09T07:03:15.277Z,58.54
2022-10-09T07:08:16.772Z,55.88
2022-10-09T07:13:18.195Z,54.51
2022-10-09T07:18:19.663Z,52.30
2022-10-09T07:23:21.132Z,49.88
2022-10-09T07:28:23.731Z,51.42
2022-10-09T07:33:25.211Z,49.36
2022-10-09T07:38:26.933Z,48.41
2022-10-09T07:43:28.981Z,48.55
2022-10-09T07:48:30.845Z,46.63
2022-10-09T07:53:35.797Z,45.95
2022-10-09T07:58:37.502Z,45.06
2022-10-09T08:03:39.001Z,46.92
2022-10-09T08:08:40.525Z,49.75
2022-10-09T08:13:42.998Z,49.68
2022-10-09T08:18:47.841Z,51.26
2022-10-09T08:23:55.259Z,53.50
2022-10-09T08:28:59.941Z,55.61
2022-10-09T08:34:03.236Z,56.82
2022-10-09T08:39:04.703Z,57.57
2022-10-09T08:44:26.789Z,57.65
2022-10-09T08:49:28.246Z,58.03
2022-10-09T08:54:38.180Z,57.38
2022-10-09T08:59:39.901Z,58.34
2022-10-09T09:05:06.556Z,56.68
2022-10-09T09:10:31.416Z,57.05
2022-10-09T09:15:53.434Z,57.31
2022-10-09T09:20:58.507Z,57.16
2022-10-09T09:26:01.182Z,57.87
2022-10-09T09:31:25.458Z,54.51
2022-10-09T09:36:42.470Z,55.17
2022-10-09T09:41:44.349Z,55.12
2022-10-09T09:46:47.639Z,54.60
2022-10-09T09:51:50.610Z,53.56
2022-10-09T09:57:18.268Z,51.14
2022-10-09T10:02:24.227Z,52.23
2022-10-09T10:07:29.276Z,51.83
2022-10-09T10:12:30.821Z,53.12
2022-10-09T10:17:34.822Z,49.49
2022-10-09T10:22:36.384Z,51.84
2022-10-09T10:27:41.901Z,50.18
2022-10-09T10:33:02.196Z,50.00
2022-10-09T10:38:05.303Z,48.65
2022-10-09T10:43:09.477Z,49.01
2022-10-09T10:48:40.128Z,47.99
2022-10-09T10:53:50.064Z,47.10
2022-10-09T10:59:04.000Z,48.33
2022-10-09T11:04:21.338Z,48.29
2022-10-09T11:09:36.060Z,47.90
2022-10-09T11:15:06.848Z,48.28
2022-10-09T11:20:19.384Z,49.95
2022-10-09T11:25:27.431Z,50.75
2022-10-09T11:30:37.715Z,49.36
2022-10-09T11:35:50.215Z,49.55
2022-10-09T11:40:52.806Z,50.05
2022-10-09T11:46:00.414Z,50.03
2022-10-09T11:51:12.654Z,50.24
2022-10-09T11:56:32.130Z,49.07
2022-10-09T12:01:42.967Z,51.37
2022-10-09T12:06:50.959Z,51.69
2022-10-09T12:11:59.573Z,51.31
2022-10-09T12:17:01.458Z,51.00
2022-10-09T12:22:27.349Z,51.23
2022-10-09T12:27:33.479Z,49.70
2022-10-09T12:33:02.360Z,49.78
2022-10-09T12:38:24.201Z,49.98
2022-10-09T12:43:25.814Z,49.11
2022-10-09T12:48:29.204Z,49.52
2022-10-09T12:53:30.799Z,49.05
2022-10-09T12:58:39.345Z,48.97
2022-10-09T13:03:43.627Z,48.44
2022-10-09T13:08:46.334Z,49.28
2022-10-09T13:13:55.103Z,48.49
2022-10-09T13:18:59.251Z,47.69
2022-10-09T13:24:08.094Z,47.62
2022-10-09T13:29:11.321Z,47.49
2022-10-09T13:34:14.029Z,47.67
2022-10-09T13:39:15.697Z,48.33
2022-10-09T13:44:17.278Z,47.50
2022-10-09T13:49:18.845Z,47.81
2022-10-09T13:54:20.363Z,48.12
2022-10-09T13:59:21.898Z,47.88
2022-10-09T14:04:23.410Z,47.56
2022-10-09T14:09:24.950Z,48.26
2022-10-09T14:14:27.965Z,47.63
2022-10-09T14:19:29.465Z,47.71
2022-10-09T14:24:30.979Z,47.57
2022-10-09T14:29:32.532Z,48.82
2022-10-09T14:34:33.966Z,48.02
2022-10-09T14:39:35.675Z,48.00
2022-10-09T14:44:37.164Z,48.37
2022-10-09T14:49:42.047Z,48.52
2022-10-09T14:54:46.225Z,48.23
2022-10-09T14:59:48.198Z,48.58
2022-10-09T15:04:51.112Z,48.42
2022-10-09T15:09:55.167Z,48.31
2022-10-09T15:14:59.989Z,48.98
2022-10-09T15:20:01.784Z,48.13
2022-10-09T15:25:03.299Z,49.08
2022-10-09T15:30:05.189Z,48.86
2022-10-09T15:35:07.478Z,49.21
2022-10-09T15:40:11.687Z,49.84
2022-10-09T15:45:13.346Z,49.53
2022-10-09T15:50:17.167Z,49.74
2022-10-09T15:55:18.694Z,50.28
2022-10-09T16:00:20.229Z,50.73
2022-10-09T16:05:29.791Z,50.63
2022-10-09T16:10:31.505Z,51.31
2022-10-09T16:15:42.292Z,51.56
2022-10-09T16:20:47.447Z,52.29
2022-10-09T16:26:02.696Z,52.68
2022-10-09T16:31:05.241Z,52.56
2022-10-09T16:36:24.019Z,54.10
2022-10-09T16:41:27.205Z,54.07
2022-10-09T16:51:36.439Z,56.06
2022-10-09T16:56:39.995Z,55.93
2022-10-09T17:01:46.107Z,56.68
2022-10-09T17:06:47.591Z,57.32
2022-10-09T17:11:49.111Z,58.01
2022-10-09T17:16:52.847Z,58.10
2022-10-09T17:21:54.260Z,58.38
2022-10-09T17:26:55.794Z,59.29
2022-10-09T17:31:57.249Z,60.05
2022-10-09T17:36:58.723Z,61.00
2022-10-09T17:42:00.177Z,61.79
2022-10-09T17:47:02.772Z,62.66
2022-10-09T17:52:07.097Z,63.09
2022-10-09T17:57:12.337Z,64.20
2022-10-09T18:02:14.255Z,64.46
2022-10-09T18:07:20.323Z,65.08
2022-10-09T18:12:22.024Z,65.48
2022-10-09T18:17:23.517Z,66.15
2022-10-09T18:22:25.098Z,67.61
2022-10-09T18:27:29.289Z,67.81
2022-10-09T18:32:31.499Z,68.51
2022-10-09T18:37:34.478Z,69.27
2022-10-09T18:42:36.408Z,69.92
2022-10-09T18:47:41.129Z,70.93
2022-10-09T18:52:43.830Z,70.41
2022-10-09T18:57:47.333Z,70.47
2022-10-09T19:02:48.756Z,70.44
2022-10-09T19:07:50.585Z,70.56
2022-10-09T19:12:54.295Z,69.91
2022-10-09T19:17:55.966Z,70.27
2022-10-09T19:22:57.444Z,70.45
2022-10-09T19:27:59.034Z,71.51
2022-10-09T19:33:00.541Z,72.25
2022-10-09T19:38:03.222Z,72.44
2022-10-09T19:43:04.735Z,72.52
2022-10-09T19:48:06.737Z,72.45
2022-10-09T19:53:08.227Z,73.01
2022-10-09T19:58:09.754Z,73.52
2022-10-09T20:03:11.341Z,74.45
2022-10-09T20:08:15.531Z,78.25
2022-10-09T20:13:16.987Z,79.40
2022-10-09T20:18:18.446Z,79.26
2022-10-09T20:23:20.615Z,78.36
2022-10-09T20:28:22.104Z,78.28
2022-10-09T20:33:23.689Z,78.24
2022-10-09T20:38:26.061Z,78.47
2022-10-09T20:43:27.612Z,79.45
2022-10-09T20:48:29.039Z,79.51
2022-10-09T20:53:30.871Z,79.79
2022-10-09T20:58:32.583Z,80.14
2022-10-09T21:03:35.493Z,80.42
2022-10-09T21:08:37.793Z,81.50
2022-10-09T21:13:42.040Z,81.22
2022-10-09T21:18:43.626Z,81.45
2022-10-09T21:23:46.104Z,82.92
2022-10-09T21:28:47.931Z,83.63
2022-10-09T21:33:50.565Z,84.81
2022-10-09T21:38:52.067Z,86.49
2022-10-09T21:43:53.574Z,85.40
2022-10-09T21:48:55.085Z,85.71
2022-10-09T21:53:56.572Z,85.80
2022-10-09T21:58:58.215Z,85.62
2022-10-09T22:03:59.813Z,86.10
2022-10-09T22:09:01.262Z,89.67
2022-10-09T22:14:04.166Z,87.92
2022-10-09T22:19:05.651Z,87.58
2022-10-09T22:24:07.262Z,87.69
2022-10-09T22:29:08.752Z,87.19
2022-10-09T22:34:10.201Z,87.52
2022-10-09T22:39:12.452Z,87.52
2022-10-09T22:44:14.237Z,88.09
2022-10-09T22:49:16.868Z,88.60
2022-10-09T22:54:19.131Z,90.23
2022-10-09T22:59:20.656Z,89.79
2022-10-09T23:04:23.220Z,90.17
2022-10-09T23:09:28.855Z,89.80
2022-10-09T23:14:30.416Z,92.13
2022-10-09T23:19:34.230Z,92.27
2022-10-09T23:24:35.683Z,91.37
2022-10-09T23:29:37.306Z,91.78
2022-10-09T23:34:38.805Z,90.84
2022-10-09T23:39:40.348Z,90.81
2022-10-09T23:44:42.216Z,90.49
2022-10-09T23:49:43.646Z,90.34
2022-10-09T23:54:45.121Z,90.95
2022-10-09T23:59:46.536Z,90.45
